createdAt,value
2019-05-12T00:01:51.565Z,61.80
2019-05-12T00:04:23.297Z,63.29
2019-05-12T00:06:55.033Z,63.26
2019-05-12T00:09:28.289Z,59.33
2019-05-12T00:12:00.084Z,57.76
2019-05-12T00:14:31.921Z,58.41
2019-05-12T00:17:03.647Z,59.81
2019-05-12T00:19:37.656Z,61.06
2019-05-12T00:22:11.279Z,61.76
2019-05-12T00:24:47.767Z,62.91
2019-05-12T00:27:23.258Z,62.71
2019-05-12T00:29:54.994Z,58.86
2019-05-12T00:32:28.224Z,56.18
2019-05-12T00:35:00.045Z,57.03
2019-05-12T00:37:31.873Z,58.79
2019-05-12T00:40:04.096Z,60.20
2019-05-12T00:42:38.054Z,61.01
2019-05-12T00:45:09.798Z,62.42
2019-05-12T00:47:41.629Z,62.04
2019-05-12T00:50:13.756Z,57.24
2019-05-12T00:52:45.514Z,57.07
2019-05-12T00:55:18.396Z,58.18
2019-05-12T00:57:50.251Z,59.76
2019-05-12T01:00:22.940Z,61.38
2019-05-12T01:02:54.669Z,61.63
2019-05-12T01:05:26.399Z,63.45
2019-05-12T01:07:58.539Z,60.96
2019-05-12T01:10:31.437Z,56.20
2019-05-12T01:13:04.764Z,57.29
2019-05-12T01:15:37.786Z,59.36
2019-05-12T01:18:09.914Z,61.01
2019-05-12T01:20:41.854Z,62.31
2019-05-12T01:23:14.823Z,62.74
2019-05-12T01:25:50.598Z,59.06
2019-05-12T01:28:22.458Z,57.13
2019-05-12T01:30:58.063Z,58.44
2019-05-12T01:33:29.250Z,60.26
2019-05-12T01:36:02.225Z,62.29
2019-05-12T01:38:34.040Z,61.54
2019-05-12T01:41:05.767Z,56.64
2019-05-12T01:43:38.230Z,55.50
2019-05-12T01:46:11.231Z,56.60
2019-05-12T01:48:42.872Z,57.77
2019-05-12T01:51:17.879Z,59.01
2019-05-12T01:53:49.772Z,60.26
2019-05-12T01:56:21.494Z,61.40
2019-05-12T01:58:53.324Z,62.75
2019-05-12T02:01:25.043Z,62.13
2019-05-12T02:03:58.545Z,57.89
2019-05-12T02:06:30.102Z,56.66
2019-05-12T02:09:03.471Z,58.04
2019-05-12T02:11:35.153Z,59.58
2019-05-12T02:14:09.242Z,61.28
2019-05-12T02:16:40.837Z,62.43
2019-05-12T02:19:12.577Z,62.26
2019-05-12T02:21:44.299Z,58.86
2019-05-12T02:24:24.272Z,56.42
2019-05-12T02:26:49.442Z,57.83
2019-05-12T02:29:21.162Z,59.05
2019-05-12T02:31:52.891Z,60.88
2019-05-12T02:34:25.580Z,61.89
2019-05-12T02:36:57.310Z,63.15
2019-05-12T02:39:29.147Z,60.64
2019-05-12T02:42:00.869Z,55.92
2019-05-12T02:44:34.652Z,56.60
2019-05-12T02:47:06.132Z,58.20
2019-05-12T02:49:37.814Z,59.51
2019-05-12T02:52:10.000Z,61.16
2019-05-12T02:54:51.895Z,62.35
2019-05-12T02:57:17.451Z,63.22
2019-05-12T02:59:50.220Z,59.42
2019-05-12T03:02:24.706Z,54.62
2019-05-12T03:04:59.555Z,55.17
2019-05-12T03:07:34.577Z,57.82
2019-05-12T03:10:14.618Z,58.90
2019-05-12T03:12:46.510Z,60.60
2019-05-12T03:15:18.352Z,62.80
2019-05-12T03:17:50.079Z,61.77
2019-05-12T03:20:24.221Z,59.49
2019-05-12T03:22:55.529Z,55.43
2019-05-12T03:25:30.127Z,55.81
2019-05-12T03:28:00.745Z,57.32
2019-05-12T03:30:38.191Z,59.47
2019-05-12T03:33:09.138Z,60.94
2019-05-12T03:35:43.469Z,61.72
2019-05-12T03:38:15.001Z,64.94
2019-05-12T03:40:47.010Z,60.14
2019-05-12T03:43:18.750Z,57.65
2019-05-12T03:45:50.489Z,59.08
2019-05-12T03:48:25.077Z,61.53
2019-05-12T03:50:55.562Z,62.82
2019-05-12T03:53:27.298Z,63.11
2019-05-12T03:55:59.029Z,59.20
2019-05-12T03:58:30.850Z,57.16
2019-05-12T04:01:04.597Z,58.97
2019-05-12T04:03:35.895Z,60.80
2019-05-12T04:06:07.626Z,63.17
2019-05-12T04:08:39.915Z,61.47
2019-05-12T04:11:14.497Z,57.64
2019-05-12T04:13:45.454Z,57.36
2019-05-12T04:16:19.990Z,59.53
2019-05-12T04:18:54.927Z,61.54
2019-05-12T04:21:25.041Z,62.75
2019-05-12T04:23:56.682Z,63.67
2019-05-12T04:26:30.049Z,61.06
2019-05-12T04:29:04.839Z,57.07
2019-05-12T04:31:37.170Z,58.14
2019-05-12T04:34:10.075Z,59.79
2019-05-12T04:36:44.873Z,61.54
2019-05-12T04:39:15.585Z,63.31
2019-05-12T04:41:48.163Z,64.44
2019-05-12T04:44:20.005Z,60.16
2019-05-12T04:46:55.151Z,56.76
2019-05-12T04:49:25.346Z,58.07
2019-05-12T04:51:57.979Z,59.63
2019-05-12T04:54:30.726Z,61.52
2019-05-12T04:57:04.149Z,64.05
2019-05-12T04:59:35.799Z,62.76
2019-05-12T05:02:07.513Z,58.45
2019-05-12T05:04:39.251Z,57.94
2019-05-12T05:07:10.984Z,59.60
2019-05-12T05:09:44.290Z,61.92
2019-05-12T05:12:16.325Z,63.12
2019-05-12T05:14:48.163Z,63.44
2019-05-12T05:17:24.574Z,60.45
2019-05-12T05:19:58.031Z,56.34
2019-05-12T05:22:29.852Z,57.68
2019-05-12T05:25:04.113Z,60.09
2019-05-12T05:27:34.925Z,62.06
2019-05-12T05:30:10.933Z,64.49
2019-05-12T05:32:44.488Z,60.95
2019-05-12T05:35:15.994Z,58.19
2019-05-12T05:37:47.832Z,60.00
2019-05-12T05:40:19.930Z,62.11
2019-05-12T05:42:54.309Z,63.84
2019-05-12T05:45:26.593Z,61.65
2019-05-12T05:47:59.549Z,56.95
2019-05-12T05:50:33.870Z,57.79
2019-05-12T05:53:12.429Z,59.31
2019-05-12T05:55:39.031Z,61.40
2019-05-12T05:58:10.759Z,63.78
2019-05-12T06:00:43.614Z,61.86
2019-05-12T06:03:22.909Z,58.63
2019-05-12T06:05:48.781Z,57.05
2019-05-12T06:33:31.319Z,73.30
2019-05-12T06:35:59.794Z,69.99
2019-05-12T12:59:56.238Z,77.32
2019-05-12T13:02:28.231Z,69.93
2019-05-12T13:04:59.791Z,68.05
2019-05-12T13:07:33.436Z,62.76
2019-05-12T13:10:09.508Z,57.25
2019-05-12T13:12:40.381Z,53.10
2019-05-12T13:15:14.588Z,55.17
2019-05-12T13:17:51.019Z,55.19
2019-05-12T13:20:23.851Z,56.65
2019-05-12T13:22:58.059Z,57.52
2019-05-12T13:25:29.934Z,57.60
2019-05-12T13:28:10.068Z,58.56
2019-05-12T13:30:45.545Z,59.24
2019-05-12T13:33:14.844Z,60.56
2019-05-12T13:35:50.326Z,61.93
2019-05-12T13:38:19.228Z,63.35
2019-05-12T13:40:51.078Z,59.96
2019-05-12T13:43:23.715Z,56.64
2019-05-12T13:45:55.767Z,55.22
2019-05-12T13:48:29.086Z,56.28
2019-05-12T13:51:12.132Z,58.45
2019-05-12T13:53:40.503Z,58.64
2019-05-12T13:56:13.699Z,59.37
2019-05-12T13:58:47.260Z,60.77
2019-05-12T14:01:21.049Z,62.06
2019-05-12T14:03:53.571Z,62.45
2019-05-12T14:06:31.842Z,62.73
2019-05-12T14:09:01.112Z,62.96
2019-05-12T14:11:34.599Z,60.91
2019-05-12T14:14:11.523Z,55.92
2019-05-12T14:16:44.536Z,57.17
2019-05-12T14:19:17.750Z,56.83
2019-05-12T14:21:54.137Z,56.06
2019-05-12T14:24:26.323Z,56.44
2019-05-12T14:26:58.008Z,58.58
2019-05-12T14:29:30.749Z,58.66
2019-05-12T14:32:05.319Z,58.27
2019-05-12T14:34:36.545Z,56.33
2019-05-12T14:37:13.621Z,58.89
2019-05-12T14:39:50.130Z,57.47
2019-05-12T14:42:19.518Z,58.19
2019-05-12T14:44:54.083Z,59.56
2019-05-12T14:47:30.093Z,59.58
2019-05-12T14:50:03.783Z,60.83
2019-05-12T14:52:34.547Z,61.68
2019-05-12T14:55:08.710Z,61.20
2019-05-12T14:57:42.175Z,60.34
2019-05-12T15:00:21.890Z,62.57
2019-05-12T15:02:54.047Z,61.52
2019-05-12T15:05:27.707Z,58.48
2019-05-12T15:08:00.889Z,55.38
2019-05-12T15:10:36.372Z,54.43
2019-05-12T15:13:09.940Z,52.99
2019-05-12T15:15:43.941Z,55.05
2019-05-12T15:18:16.780Z,54.64
2019-05-12T15:20:51.355Z,56.06
2019-05-12T15:23:32.652Z,56.13
2019-05-12T15:25:58.063Z,55.27
2019-05-12T15:28:33.800Z,56.02
2019-05-12T15:31:05.872Z,57.02
2019-05-12T15:33:37.618Z,57.67
2019-05-12T15:36:09.758Z,57.22
2019-05-12T15:38:43.734Z,56.13
2019-05-12T15:41:20.061Z,57.50
2019-05-12T15:43:53.662Z,58.27
2019-05-12T15:46:26.517Z,58.64
2019-05-12T15:48:58.381Z,60.08
2019-05-12T15:51:30.336Z,59.12
2019-05-12T15:54:06.247Z,60.93
2019-05-12T15:56:35.468Z,60.46
2019-05-12T15:59:09.924Z,60.71
2019-05-12T16:01:43.809Z,61.01
2019-05-12T16:04:15.462Z,61.74
2019-05-12T16:06:53.176Z,63.14
2019-05-12T16:09:23.792Z,61.27
2019-05-12T16:11:55.273Z,60.05
2019-05-12T16:14:33.937Z,55.76
2019-05-12T16:17:06.296Z,55.08
2019-05-12T16:19:37.242Z,54.13
2019-05-12T16:22:08.990Z,55.60
2019-05-12T16:24:43.525Z,55.28
2019-05-12T16:27:14.570Z,55.43
2019-05-12T16:29:49.934Z,56.86
2019-05-12T16:32:27.266Z,57.06
2019-05-12T16:34:57.657Z,58.23
2019-05-12T16:37:31.099Z,58.95
2019-05-12T16:40:04.470Z,59.80
2019-05-12T16:42:40.800Z,60.39
2019-05-12T16:45:10.703Z,60.12
2019-05-12T16:47:44.724Z,61.04
2019-05-12T16:50:24.475Z,61.16
2019-05-12T16:52:49.965Z,61.32
2019-05-12T16:55:23.647Z,62.20
2019-05-12T16:57:56.264Z,63.02
2019-05-12T17:00:34.022Z,65.03
2019-05-12T17:03:09.003Z,61.76
2019-05-12T17:05:43.962Z,55.18
2019-05-12T17:08:16.721Z,50.94
2019-05-12T17:11:01.059Z,52.12
2019-05-12T17:13:34.019Z,53.19
2019-05-12T17:16:13.875Z,54.16
2019-05-12T17:18:48.387Z,55.10
2019-05-12T17:21:24.621Z,56.33
2019-05-12T17:23:57.459Z,57.14
2019-05-12T17:26:29.488Z,57.80
2019-05-12T17:29:10.987Z,59.07
2019-05-12T17:31:45.782Z,60.00
2019-05-12T17:34:19.223Z,60.55
2019-05-12T17:36:58.511Z,61.49
2019-05-12T17:39:29.309Z,62.42
2019-05-12T17:42:03.481Z,65.76
2019-05-12T17:44:38.894Z,63.31
2019-05-12T17:47:20.730Z,58.89
2019-05-12T17:49:45.755Z,53.83
2019-05-12T17:52:19.441Z,54.97
2019-05-12T17:54:57.850Z,56.32
2019-05-12T17:57:27.703Z,56.95
2019-05-12T18:00:08.551Z,58.27
2019-05-12T18:02:43.637Z,59.41
2019-05-12T18:05:16.033Z,60.45
2019-05-12T18:07:50.854Z,62.04
2019-05-12T18:10:23.863Z,65.91
2019-05-12T18:13:00.411Z,61.76
2019-05-12T18:15:37.832Z,56.71
2019-05-12T18:18:08.577Z,52.96
2019-05-12T18:20:43.942Z,53.41
2019-05-12T18:23:14.235Z,54.64
2019-05-12T18:25:48.224Z,56.14
2019-05-12T18:28:21.644Z,57.75
2019-05-12T18:30:55.887Z,59.12
2019-05-12T18:33:33.269Z,59.94
2019-05-12T18:36:01.064Z,61.62
2019-05-12T18:38:38.752Z,62.41
2019-05-12T18:41:06.975Z,67.03
2019-05-12T18:43:40.169Z,62.91
2019-05-12T18:46:13.995Z,57.94
2019-05-12T18:48:56.669Z,53.86
2019-05-12T18:51:26.446Z,54.52
2019-05-12T18:54:03.657Z,55.99
2019-05-12T18:56:36.718Z,57.36
2019-05-12T18:59:11.763Z,58.89
2019-05-12T19:01:44.750Z,60.55
2019-05-12T19:04:16.400Z,61.51
2019-05-12T19:06:49.009Z,62.29
2019-05-12T19:09:23.784Z,66.84
2019-05-12T19:11:58.322Z,63.25
2019-05-12T19:14:38.654Z,58.05
2019-05-12T19:17:07.401Z,53.82
2019-05-12T19:19:40.546Z,54.77
2019-05-12T19:22:14.142Z,56.12
2019-05-12T19:24:50.080Z,57.68
2019-05-12T19:27:24.080Z,59.01
2019-05-12T19:29:56.845Z,60.66
2019-05-12T19:32:29.451Z,61.73
2019-05-12T19:35:03.708Z,63.24
2019-05-12T19:37:36.398Z,66.79
2019-05-12T19:40:11.883Z,61.83
2019-05-12T19:42:46.328Z,56.67
2019-05-12T19:45:21.605Z,53.03
2019-05-12T19:47:53.609Z,54.19
2019-05-12T19:50:25.143Z,55.76
2019-05-12T19:52:56.894Z,57.04
2019-05-12T19:55:29.447Z,58.18
2019-05-12T19:58:10.957Z,59.89
2019-05-12T20:00:39.842Z,61.42
2019-05-12T20:03:13.677Z,62.89
2019-05-12T20:05:44.902Z,66.89
2019-05-12T20:08:16.867Z,62.34
2019-05-12T20:10:49.759Z,57.42
2019-05-12T20:13:23.915Z,53.79
2019-05-12T20:16:02.012Z,55.00
2019-05-12T20:18:49.147Z,56.61
2019-05-12T20:21:20.409Z,58.20
2019-05-12T20:24:03.861Z,59.69
2019-05-12T20:26:45.965Z,60.52
2019-05-12T20:29:24.512Z,61.87
2019-05-12T20:32:04.829Z,66.52
2019-05-12T20:34:48.072Z,62.51
2019-05-12T20:37:22.935Z,57.78
2019-05-12T20:40:04.382Z,53.81
2019-05-12T20:42:42.294Z,55.15
2019-05-12T20:45:13.729Z,56.83
2019-05-12T20:47:47.675Z,57.86
2019-05-12T20:50:32.769Z,59.40
2019-05-12T20:53:05.264Z,60.79
2019-05-12T20:55:41.524Z,62.38
2019-05-12T20:58:15.644Z,66.15
2019-05-12T21:00:50.107Z,61.97
2019-05-12T21:03:28.498Z,56.52
2019-05-12T21:06:02.207Z,53.11
2019-05-12T21:08:38.447Z,53.83
2019-05-12T21:11:15.186Z,55.51
2019-05-12T21:13:47.274Z,57.02
2019-05-12T21:16:30.854Z,57.78
2019-05-12T21:19:07.472Z,59.81
2019-05-12T21:21:38.220Z,61.26
2019-05-12T21:24:20.937Z,61.62
2019-05-12T21:27:03.690Z,66.47
2019-05-12T21:29:33.804Z,62.04
2019-05-12T21:32:12.304Z,56.61
2019-05-12T21:34:43.553Z,53.27
2019-05-12T21:37:14.913Z,54.21
2019-05-12T21:39:50.960Z,55.62
2019-05-12T21:42:20.525Z,56.73
2019-05-12T21:44:53.287Z,58.68
2019-05-12T21:47:26.648Z,60.16
2019-05-12T21:49:58.359Z,60.95
2019-05-12T21:52:37.142Z,62.77
2019-05-12T21:55:23.153Z,66.43
2019-05-12T21:58:01.471Z,61.54
2019-05-12T22:03:27.523Z,51.87
2019-05-12T22:06:06.871Z,52.09
2019-05-12T22:08:34.232Z,53.07
2019-05-12T22:11:11.513Z,54.08
2019-05-12T22:13:46.778Z,54.79
2019-05-12T22:16:15.172Z,56.21
2019-05-12T22:18:54.665Z,57.39
2019-05-12T22:21:23.852Z,59.75
2019-05-12T22:23:56.359Z,60.42
2019-05-12T22:26:30.761Z,60.82
2019-05-12T22:29:04.155Z,61.15
2019-05-12T22:31:38.553Z,62.14
2019-05-12T22:34:08.856Z,62.48
2019-05-12T22:36:45.232Z,65.85
2019-05-12T22:39:14.808Z,60.83
2019-05-12T22:41:46.558Z,57.19
2019-05-12T22:44:22.014Z,51.56
2019-05-12T22:46:54.093Z,51.64
2019-05-12T22:49:25.852Z,52.94
2019-05-12T22:52:02.692Z,53.56
2019-05-12T22:54:33.669Z,54.57
2019-05-12T22:57:06.686Z,55.54
2019-05-12T22:59:40.347Z,56.13
2019-05-12T23:02:16.037Z,56.73
2019-05-12T23:04:45.273Z,57.22
2019-05-12T23:07:19.093Z,58.24
2019-05-12T23:09:50.338Z,59.14
2019-05-12T23:12:23.666Z,60.45
2019-05-12T23:15:03.049Z,61.22
2019-05-12T23:17:29.680Z,61.45
2019-05-12T23:20:01.374Z,62.85
2019-05-12T23:22:35.099Z,67.51
2019-05-12T23:25:11.381Z,63.96
2019-05-12T23:27:44.229Z,57.18
2019-05-12T23:30:16.357Z,51.77
2019-05-12T23:32:51.463Z,51.97
2019-05-12T23:35:21.724Z,53.15
2019-05-12T23:37:53.714Z,54.62
2019-05-12T23:40:25.569Z,55.13
2019-05-12T23:42:57.321Z,56.78
2019-05-12T23:45:29.049Z,57.22
2019-05-12T23:48:03.458Z,58.51
2019-05-12T23:50:34.417Z,59.14
2019-05-12T23:53:06.256Z,59.98
2019-05-12T23:55:37.980Z,60.74
2019-05-12T23:58:09.731Z,61.23
